sensor_id;sensor_type;location;lat;lon;timestamp;temperature;humidity
65291;SHT30;51893;59.754;10.110;2023-04-16T00:00:35;4.86;86.92
65291;SHT30;51893;59.754;10.110;2023-04-16T00:03:22;4.79;87.03
65291;SHT30;51893;59.754;10.110;2023-04-16T00:05:49;4.79;87.15
65291;SHT30;51893;59.754;10.110;2023-04-16T00:08:17;4.71;87.12
65291;SHT30;51893;59.754;10.110;2023-04-16T00:10:44;4.70;87.23
65291;SHT30;51893;59.754;10.110;2023-04-16T00:13:11;4.77;87.24
65291;SHT30;51893;59.754;10.110;2023-04-16T00:15:38;4.82;87.15
65291;SHT30;51893;59.754;10.110;2023-04-16T00:18:05;4.78;87.02
65291;SHT30;51893;59.754;10.110;2023-04-16T00:20:31;4.79;87.02
65291;SHT30;51893;59.754;10.110;2023-04-16T00:22:58;4.74;86.96
65291;SHT30;51893;59.754;10.110;2023-04-16T00:25:26;4.72;87.01
65291;SHT30;51893;59.754;10.110;2023-04-16T00:27:52;4.71;87.05
65291;SHT30;51893;59.754;10.110;2023-04-16T00:30:19;4.67;87.03
65291;SHT30;51893;59.754;10.110;2023-04-16T00:32:45;4.67;87.12
65291;SHT30;51893;59.754;10.110;2023-04-16T00:35:12;4.67;87.13
65291;SHT30;51893;59.754;10.110;2023-04-16T00:37:38;4.69;87.18
65291;SHT30;51893;59.754;10.110;2023-04-16T00:40:05;4.74;87.10
65291;SHT30;51893;59.754;10.110;2023-04-16T00:42:34;4.67;87.01
65291;SHT30;51893;59.754;10.110;2023-04-16T00:45:04;4.65;87.10
65291;SHT30;51893;59.754;10.110;2023-04-16T00:47:31;4.59;87.09
65291;SHT30;51893;59.754;10.110;2023-04-16T00:50:04;4.57;87.21
65291;SHT30;51893;59.754;10.110;2023-04-16T00:52:35;4.56;87.23
65291;SHT30;51893;59.754;10.110;2023-04-16T00:55:02;4.62;87.23
65291;SHT30;51893;59.754;10.110;2023-04-16T00:57:33;4.63;87.17
65291;SHT30;51893;59.754;10.110;2023-04-16T01:00:02;4.69;87.12
65291;SHT30;51893;59.754;10.110;2023-04-16T01:02:32;4.78;86.99
65291;SHT30;51893;59.754;10.110;2023-04-16T01:05:00;4.76;86.90
65291;SHT30;51893;59.754;10.110;2023-04-16T01:07:28;4.71;86.90
65291;SHT30;51893;59.754;10.110;2023-04-16T01:09:56;4.69;86.91
65291;SHT30;51893;59.754;10.110;2023-04-16T01:12:26;4.68;87.00
65291;SHT30;51893;59.754;10.110;2023-04-16T01:14:53;4.68;87.00
65291;SHT30;51893;59.754;10.110;2023-04-16T01:17:22;4.65;86.98
65291;SHT30;51893;59.754;10.110;2023-04-16T01:19:50;4.63;86.95
65291;SHT30;51893;59.754;10.110;2023-04-16T01:22:18;4.59;86.95
65291;SHT30;51893;59.754;10.110;2023-04-16T01:24:47;4.57;86.99
65291;SHT30;51893;59.754;10.110;2023-04-16T01:27:15;4.54;87.04
65291;SHT30;51893;59.754;10.110;2023-04-16T01:29:42;4.56;87.12
65291;SHT30;51893;59.754;10.110;2023-04-16T01:32:09;4.59;87.14
65291;SHT30;51893;59.754;10.110;2023-04-16T01:34:37;4.59;87.06
65291;SHT30;51893;59.754;10.110;2023-04-16T01:37:04;4.56;87.00
65291;SHT30;51893;59.754;10.110;2023-04-16T01:39:31;4.53;87.05
65291;SHT30;51893;59.754;10.110;2023-04-16T01:41:58;4.50;87.08
65291;SHT30;51893;59.754;10.110;2023-04-16T01:44:26;4.52;87.15
65291;SHT30;51893;59.754;10.110;2023-04-16T01:46:53;4.56;87.12
65291;SHT30;51893;59.754;10.110;2023-04-16T01:49:20;4.54;87.12
65291;SHT30;51893;59.754;10.110;2023-04-16T01:51:49;4.53;87.18
65291;SHT30;51893;59.754;10.110;2023-04-16T01:54:19;4.50;87.20
65291;SHT30;51893;59.754;10.110;2023-04-16T01:56:45;4.53;87.23
65291;SHT30;51893;59.754;10.110;2023-04-16T01:59:13;4.56;87.22
65291;SHT30;51893;59.754;10.110;2023-04-16T02:01:40;4.61;87.23
65291;SHT30;51893;59.754;10.110;2023-04-16T02:04:07;4.70;87.14
65291;SHT30;51893;59.754;10.110;2023-04-16T02:06:38;4.66;87.02
65291;SHT30;51893;59.754;10.110;2023-04-16T02:09:05;4.68;87.05
65291;SHT30;51893;59.754;10.110;2023-04-16T02:11:31;4.66;87.00
65291;SHT30;51893;59.754;10.110;2023-04-16T02:13:59;4.64;87.02
65291;SHT30;51893;59.754;10.110;2023-04-16T02:16:26;4.62;87.01
65291;SHT30;51893;59.754;10.110;2023-04-16T02:18:53;4.61;87.10
65291;SHT30;51893;59.754;10.110;2023-04-16T02:21:23;4.61;87.13
65291;SHT30;51893;59.754;10.110;2023-04-16T02:23:51;4.61;87.15
65291;SHT30;51893;59.754;10.110;2023-04-16T02:26:18;4.56;87.20
65291;SHT30;51893;59.754;10.110;2023-04-16T02:28:45;4.55;87.25
65291;SHT30;51893;59.754;10.110;2023-04-16T02:31:12;4.55;87.30
65291;SHT30;51893;59.754;10.110;2023-04-16T02:33:43;4.53;87.22
65291;SHT30;51893;59.754;10.110;2023-04-16T02:36:10;4.50;87.22
65291;SHT30;51893;59.754;10.110;2023-04-16T02:38:40;4.49;87.30
65291;SHT30;51893;59.754;10.110;2023-04-16T02:41:07;4.50;87.33
65291;SHT30;51893;59.754;10.110;2023-04-16T02:43:35;4.55;87.34
65291;SHT30;51893;59.754;10.110;2023-04-16T02:46:01;4.55;87.29
65291;SHT30;51893;59.754;10.110;2023-04-16T02:48:29;4.53;87.26
65291;SHT30;51893;59.754;10.110;2023-04-16T02:50:56;4.51;87.29
65291;SHT30;51893;59.754;10.110;2023-04-16T02:53:23;4.52;87.30
65291;SHT30;51893;59.754;10.110;2023-04-16T02:55:50;4.52;87.25
65291;SHT30;51893;59.754;10.110;2023-04-16T02:58:21;4.47;87.25
65291;SHT30;51893;59.754;10.110;2023-04-16T03:00:50;4.44;87.27
65291;SHT30;51893;59.754;10.110;2023-04-16T03:03:18;4.45;87.28
65291;SHT30;51893;59.754;10.110;2023-04-16T03:05:46;4.47;87.30
65291;SHT30;51893;59.754;10.110;2023-04-16T03:08:14;4.50;87.30
65291;SHT30;51893;59.754;10.110;2023-04-16T03:10:41;4.53;87.29
65291;SHT30;51893;59.754;10.110;2023-04-16T03:13:08;4.50;87.22
65291;SHT30;51893;59.754;10.110;2023-04-16T03:15:34;4.45;87.29
65291;SHT30;51893;59.754;10.110;2023-04-16T03:18:02;4.39;87.40
65291;SHT30;51893;59.754;10.110;2023-04-16T03:20:31;4.37;87.49
65291;SHT30;51893;59.754;10.110;2023-04-16T03:22:58;4.41;87.59
65291;SHT30;51893;59.754;10.110;2023-04-16T03:25:27;4.48;87.53
65291;SHT30;51893;59.754;10.110;2023-04-16T03:27:54;4.58;87.43
65291;SHT30;51893;59.754;10.110;2023-04-16T03:30:23;4.63;87.29
65291;SHT30;51893;59.754;10.110;2023-04-16T03:32:49;4.63;87.12
65291;SHT30;51893;59.754;10.110;2023-04-16T03:35:20;4.60;87.08
65291;SHT30;51893;59.754;10.110;2023-04-16T03:37:46;4.55;87.10
65291;SHT30;51893;59.754;10.110;2023-04-16T03:40:13;4.51;87.10
65291;SHT30;51893;59.754;10.110;2023-04-16T03:42:41;4.48;87.18
65291;SHT30;51893;59.754;10.110;2023-04-16T03:45:08;4.44;87.19
65291;SHT30;51893;59.754;10.110;2023-04-16T03:47:36;4.42;87.20
65291;SHT30;51893;59.754;10.110;2023-04-16T03:50:04;4.39;87.25
65291;SHT30;51893;59.754;10.110;2023-04-16T03:52:31;4.35;87.29
65291;SHT30;51893;59.754;10.110;2023-04-16T03:54:57;4.33;87.30
65291;SHT30;51893;59.754;10.110;2023-04-16T03:57:25;4.30;87.33
65291;SHT30;51893;59.754;10.110;2023-04-16T03:59:52;4.28;87.38
65291;SHT30;51893;59.754;10.110;2023-04-16T04:02:18;4.28;87.48
65291;SHT30;51893;59.754;10.110;2023-04-16T04:04:45;4.29;87.49
65291;SHT30;51893;59.754;10.110;2023-04-16T04:07:12;4.29;87.50
65291;SHT30;51893;59.754;10.110;2023-04-16T04:09:44;4.31;87.50
65291;SHT30;51893;59.754;10.110;2023-04-16T04:12:10;4.35;87.51
65291;SHT30;51893;59.754;10.110;2023-04-16T04:14:37;4.41;87.49
65291;SHT30;51893;59.754;10.110;2023-04-16T04:17:05;4.44;87.40
65291;SHT30;51893;59.754;10.110;2023-04-16T04:19:34;4.43;87.35
65291;SHT30;51893;59.754;10.110;2023-04-16T04:22:16;4.39;87.32
65291;SHT30;51893;59.754;10.110;2023-04-16T04:24:43;4.35;87.44
65291;SHT30;51893;59.754;10.110;2023-04-16T04:27:10;4.34;87.50
65291;SHT30;51893;59.754;10.110;2023-04-16T04:29:37;4.32;87.56
65291;SHT30;51893;59.754;10.110;2023-04-16T04:32:03;4.29;87.61
65291;SHT30;51893;59.754;10.110;2023-04-16T04:34:31;4.31;87.69
65291;SHT30;51893;59.754;10.110;2023-04-16T04:36:59;4.30;87.64
65291;SHT30;51893;59.754;10.110;2023-04-16T04:39:26;4.33;87.68
65291;SHT30;51893;59.754;10.110;2023-04-16T04:41:58;4.33;87.66
65291;SHT30;51893;59.754;10.110;2023-04-16T04:44:27;4.34;87.69
65291;SHT30;51893;59.754;10.110;2023-04-16T04:46:55;4.36;87.69
65291;SHT30;51893;59.754;10.110;2023-04-16T04:49:22;4.39;87.62
65291;SHT30;51893;59.754;10.110;2023-04-16T04:51:48;4.39;87.59
65291;SHT30;51893;59.754;10.110;2023-04-16T04:54:16;4.37;87.59
65291;SHT30;51893;59.754;10.110;2023-04-16T04:56:43;4.34;87.58
65291;SHT30;51893;59.754;10.110;2023-04-16T04:59:12;4.30;87.65
65291;SHT30;51893;59.754;10.110;2023-04-16T05:01:38;4.37;87.74
65291;SHT30;51893;59.754;10.110;2023-04-16T05:04:06;4.34;87.67
65291;SHT30;51893;59.754;10.110;2023-04-16T05:06:33;4.33;87.74
65291;SHT30;51893;59.754;10.110;2023-04-16T05:09:01;4.35;87.72
65291;SHT30;51893;59.754;10.110;2023-04-16T05:11:29;4.32;87.70
65291;SHT30;51893;59.754;10.110;2023-04-16T05:14:01;4.29;87.75
65291;SHT30;51893;59.754;10.110;2023-04-16T05:16:27;4.25;87.80
65291;SHT30;51893;59.754;10.110;2023-04-16T05:18:54;4.21;87.92
65291;SHT30;51893;59.754;10.110;2023-04-16T05:21:23;4.22;87.99
65291;SHT30;51893;59.754;10.110;2023-04-16T05:23:51;4.29;87.97
65291;SHT30;51893;59.754;10.110;2023-04-16T05:26:19;4.28;87.90
65291;SHT30;51893;59.754;10.110;2023-04-16T05:28:46;4.26;87.92
65291;SHT30;51893;59.754;10.110;2023-04-16T05:31:13;4.24;88.00
65291;SHT30;51893;59.754;10.110;2023-04-16T05:33:42;4.25;88.02
65291;SHT30;51893;59.754;10.110;2023-04-16T05:36:08;4.25;88.06
65291;SHT30;51893;59.754;10.110;2023-04-16T05:38:38;4.24;88.04
65291;SHT30;51893;59.754;10.110;2023-04-16T05:41:04;4.25;88.09
65291;SHT30;51893;59.754;10.110;2023-04-16T05:43:31;4.29;88.07
65291;SHT30;51893;59.754;10.110;2023-04-16T05:46:00;4.30;88.09
65291;SHT30;51893;59.754;10.110;2023-04-16T05:48:28;4.38;88.02
65291;SHT30;51893;59.754;10.110;2023-04-16T05:50:55;4.39;87.91
65291;SHT30;51893;59.754;10.110;2023-04-16T05:53:22;4.33;87.94
65291;SHT30;51893;59.754;10.110;2023-04-16T05:55:50;4.30;88.01
65291;SHT30;51893;59.754;10.110;2023-04-16T05:58:19;4.30;88.10
65291;SHT30;51893;59.754;10.110;2023-04-16T06:00:47;4.36;88.15
65291;SHT30;51893;59.754;10.110;2023-04-16T06:03:16;4.43;88.17
65291;SHT30;51893;59.754;10.110;2023-04-16T06:05:45;4.48;88.13
65291;SHT30;51893;59.754;10.110;2023-04-16T06:08:12;4.55;88.06
65291;SHT30;51893;59.754;10.110;2023-04-16T06:10:38;4.51;87.91
65291;SHT30;51893;59.754;10.110;2023-04-16T06:13:05;4.44;87.96
65291;SHT30;51893;59.754;10.110;2023-04-16T06:15:32;4.43;88.12
65291;SHT30;51893;59.754;10.110;2023-04-16T06:18:01;4.50;88.15
65291;SHT30;51893;59.754;10.110;2023-04-16T06:20:28;4.57;88.11
65291;SHT30;51893;59.754;10.110;2023-04-16T06:22:56;4.60;88.04
65291;SHT30;51893;59.754;10.110;2023-04-16T06:25:23;4.60;87.95
65291;SHT30;51893;59.754;10.110;2023-04-16T06:27:49;4.59;87.96
65291;SHT30;51893;59.754;10.110;2023-04-16T06:30:16;4.60;88.10
65291;SHT30;51893;59.754;10.110;2023-04-16T06:32:44;4.65;88.21
65291;SHT30;51893;59.754;10.110;2023-04-16T06:35:14;4.70;88.20
65291;SHT30;51893;59.754;10.110;2023-04-16T06:37:41;4.74;88.17
65291;SHT30;51893;59.754;10.110;2023-04-16T06:40:08;4.80;88.14
65291;SHT30;51893;59.754;10.110;2023-04-16T06:42:36;4.89;88.18
65291;SHT30;51893;59.754;10.110;2023-04-16T06:45:05;4.95;88.05
65291;SHT30;51893;59.754;10.110;2023-04-16T06:47:33;4.99;88.10
65291;SHT30;51893;59.754;10.110;2023-04-16T06:49:59;5.05;88.05
65291;SHT30;51893;59.754;10.110;2023-04-16T06:52:28;5.08;88.04
65291;SHT30;51893;59.754;10.110;2023-04-16T06:54:55;5.13;88.00
65291;SHT30;51893;59.754;10.110;2023-04-16T06:57:23;5.16;87.96
65291;SHT30;51893;59.754;10.110;2023-04-16T06:59:51;5.14;87.90
65291;SHT30;51893;59.754;10.110;2023-04-16T07:02:18;5.11;87.83
65291;SHT30;51893;59.754;10.110;2023-04-16T07:04:45;5.13;87.86
65291;SHT30;51893;59.754;10.110;2023-04-16T07:07:13;5.14;87.89
65291;SHT30;51893;59.754;10.110;2023-04-16T07:09:41;5.14;87.80
65291;SHT30;51893;59.754;10.110;2023-04-16T07:12:09;5.14;87.74
65291;SHT30;51893;59.754;10.110;2023-04-16T07:14:40;5.13;87.70
65291;SHT30;51893;59.754;10.110;2023-04-16T07:17:11;5.14;87.74
65291;SHT30;51893;59.754;10.110;2023-04-16T07:19:38;5.21;87.78
65291;SHT30;51893;59.754;10.110;2023-04-16T07:22:11;5.29;87.68
65291;SHT30;51893;59.754;10.110;2023-04-16T07:24:39;5.35;87.54
65291;SHT30;51893;59.754;10.110;2023-04-16T07:27:09;5.37;87.34
65291;SHT30;51893;59.754;10.110;2023-04-16T07:29:41;5.38;87.31
65291;SHT30;51893;59.754;10.110;2023-04-16T07:32:10;5.39;87.36
65291;SHT30;51893;59.754;10.110;2023-04-16T07:34:41;5.43;87.49
65291;SHT30;51893;59.754;10.110;2023-04-16T07:37:12;5.47;87.50
65291;SHT30;51893;59.754;10.110;2023-04-16T07:39:41;5.49;87.46
65291;SHT30;51893;59.754;10.110;2023-04-16T07:42:09;5.49;87.40
65291;SHT30;51893;59.754;10.110;2023-04-16T07:44:38;5.43;87.39
65291;SHT30;51893;59.754;10.110;2023-04-16T07:47:09;5.40;87.49
65291;SHT30;51893;59.754;10.110;2023-04-16T07:49:37;5.34;87.53
65291;SHT30;51893;59.754;10.110;2023-04-16T07:52:07;5.34;87.63
65291;SHT30;51893;59.754;10.110;2023-04-16T07:54:34;5.33;87.64
65291;SHT30;51893;59.754;10.110;2023-04-16T07:57:05;5.32;87.70
65291;SHT30;51893;59.754;10.110;2023-04-16T07:59:31;5.32;87.74
65291;SHT30;51893;59.754;10.110;2023-04-16T08:01:58;5.30;87.85
65291;SHT30;51893;59.754;10.110;2023-04-16T08:04:26;5.31;88.00
65291;SHT30;51893;59.754;10.110;2023-04-16T08:06:54;5.35;88.08
65291;SHT30;51893;59.754;10.110;2023-04-16T08:09:24;5.34;88.07
65291;SHT30;51893;59.754;10.110;2023-04-16T08:11:54;5.32;88.15
65291;SHT30;51893;59.754;10.110;2023-04-16T08:14:26;5.39;88.26
65291;SHT30;51893;59.754;10.110;2023-04-16T08:16:54;5.44;88.22
65291;SHT30;51893;59.754;10.110;2023-04-16T08:19:29;5.51;88.25
65291;SHT30;51893;59.754;10.110;2023-04-16T08:21:57;5.60;88.16
65291;SHT30;51893;59.754;10.110;2023-04-16T08:24:25;5.69;88.13
65291;SHT30;51893;59.754;10.110;2023-04-16T08:26:53;5.75;88.10
65291;SHT30;51893;59.754;10.110;2023-04-16T08:29:28;5.72;87.88
65291;SHT30;51893;59.754;10.110;2023-04-16T08:31:56;5.63;87.81
65291;SHT30;51893;59.754;10.110;2023-04-16T08:34:32;5.57;88.01
65291;SHT30;51893;59.754;10.110;2023-04-16T08:37:00;5.57;88.29
65291;SHT30;51893;59.754;10.110;2023-04-16T08:39:29;5.67;88.50
65291;SHT30;51893;59.754;10.110;2023-04-16T08:41:57;5.73;88.37
65291;SHT30;51893;59.754;10.110;2023-04-16T08:44:25;5.87;88.58
65291;SHT30;51893;59.754;10.110;2023-04-16T08:47:00;6.00;88.51
65291;SHT30;51893;59.754;10.110;2023-04-16T08:49:28;6.02;88.03
65291;SHT30;51893;59.754;10.110;2023-04-16T08:52:04;6.12;88.05
65291;SHT30;51893;59.754;10.110;2023-04-16T08:57:23;6.38;87.80
65291;SHT30;51893;59.754;10.110;2023-04-16T09:00:10;6.56;87.80
65291;SHT30;51893;59.754;10.110;2023-04-16T09:02:40;6.76;87.90
65291;SHT30;51893;59.754;10.110;2023-04-16T09:05:09;6.89;87.31
65291;SHT30;51893;59.754;10.110;2023-04-16T09:07:43;6.90;86.19
65291;SHT30;51893;59.754;10.110;2023-04-16T09:10:14;6.98;86.48
65291;SHT30;51893;59.754;10.110;2023-04-16T09:12:43;7.05;86.34
65291;SHT30;51893;59.754;10.110;2023-04-16T09:15:12;7.04;85.83
65291;SHT30;51893;59.754;10.110;2023-04-16T09:17:41;7.07;85.90
65291;SHT30;51893;59.754;10.110;2023-04-16T09:20:08;7.12;85.84
65291;SHT30;51893;59.754;10.110;2023-04-16T09:22:37;7.18;85.91
65291;SHT30;51893;59.754;10.110;2023-04-16T09:25:08;7.23;85.86
65291;SHT30;51893;59.754;10.110;2023-04-16T09:27:36;7.27;85.67
65291;SHT30;51893;59.754;10.110;2023-04-16T09:30:23;7.30;85.40
65291;SHT30;51893;59.754;10.110;2023-04-16T09:33:12;7.37;85.39
65291;SHT30;51893;59.754;10.110;2023-04-16T09:35:45;7.48;85.14
65291;SHT30;51893;59.754;10.110;2023-04-16T09:38:14;7.55;84.87
65291;SHT30;51893;59.754;10.110;2023-04-16T09:40:47;7.57;84.45
65291;SHT30;51893;59.754;10.110;2023-04-16T09:43:37;7.59;84.14
65291;SHT30;51893;59.754;10.110;2023-04-16T09:46:05;7.62;84.40
65291;SHT30;51893;59.754;10.110;2023-04-16T09:48:34;7.68;84.29
65291;SHT30;51893;59.754;10.110;2023-04-16T09:51:05;7.69;83.71
65291;SHT30;51893;59.754;10.110;2023-04-16T09:53:32;7.65;82.98
65291;SHT30;51893;59.754;10.110;2023-04-16T09:56:01;7.64;83.07
65291;SHT30;51893;59.754;10.110;2023-04-16T09:58:34;7.64;83.02
65291;SHT30;51893;59.754;10.110;2023-04-16T10:01:07;7.66;82.93
65291;SHT30;51893;59.754;10.110;2023-04-16T10:03:41;7.71;83.27
65291;SHT30;51893;59.754;10.110;2023-04-16T10:06:18;7.77;83.20
65291;SHT30;51893;59.754;10.110;2023-04-16T10:08:50;7.82;83.01
65291;SHT30;51893;59.754;10.110;2023-04-16T10:11:23;7.85;82.85
65291;SHT30;51893;59.754;10.110;2023-04-16T10:13:52;7.88;82.66
65291;SHT30;51893;59.754;10.110;2023-04-16T10:16:19;7.88;82.31
65291;SHT30;51893;59.754;10.110;2023-04-16T10:18:49;7.92;82.42
65291;SHT30;51893;59.754;10.110;2023-04-16T10:21:18;7.92;82.04
65291;SHT30;51893;59.754;10.110;2023-04-16T10:23:46;7.93;81.72
65291;SHT30;51893;59.754;10.110;2023-04-16T10:26:14;7.97;82.05
65291;SHT30;51893;59.754;10.110;2023-04-16T10:28:48;8.05;82.34
65291;SHT30;51893;59.754;10.110;2023-04-16T10:31:17;8.05;82.08
65291;SHT30;51893;59.754;10.110;2023-04-16T10:33:48;8.04;81.76
65291;SHT30;51893;59.754;10.110;2023-04-16T10:36:22;8.03;81.12
65291;SHT30;51893;59.754;10.110;2023-04-16T10:38:56;8.06;81.67
65291;SHT30;51893;59.754;10.110;2023-04-16T10:41:26;8.05;81.16
65291;SHT30;51893;59.754;10.110;2023-04-16T10:44:02;7.99;80.62
65291;SHT30;51893;59.754;10.110;2023-04-16T10:46:36;7.91;80.74
65291;SHT30;51893;59.754;10.110;2023-04-16T10:49:17;7.88;80.58
65291;SHT30;51893;59.754;10.110;2023-04-16T10:51:57;7.80;80.10
65291;SHT30;51893;59.754;10.110;2023-04-16T10:54:38;7.76;80.42
65291;SHT30;51893;59.754;10.110;2023-04-16T10:57:14;7.72;80.44
65291;SHT30;51893;59.754;10.110;2023-04-16T10:59:44;7.65;80.33
65291;SHT30;51893;59.754;10.110;2023-04-16T11:02:18;7.64;80.55
65291;SHT30;51893;59.754;10.110;2023-04-16T11:04:48;7.63;80.33
65291;SHT30;51893;59.754;10.110;2023-04-16T11:09:55;7.63;80.39
65291;SHT30;51893;59.754;10.110;2023-04-16T11:15:15;7.67;80.64
65291;SHT30;51893;59.754;10.110;2023-04-16T11:17:49;7.68;80.82
65291;SHT30;51893;59.754;10.110;2023-04-16T11:22:56;7.67;80.61
65291;SHT30;51893;59.754;10.110;2023-04-16T11:25:25;7.68;80.45
65291;SHT30;51893;59.754;10.110;2023-04-16T11:28:07;7.71;80.92
65291;SHT30;51893;59.754;10.110;2023-04-16T11:30:35;7.70;80.49
65291;SHT30;51893;59.754;10.110;2023-04-16T11:33:09;7.67;80.42
65291;SHT30;51893;59.754;10.110;2023-04-16T11:35:38;7.68;80.47
65291;SHT30;51893;59.754;10.110;2023-04-16T11:38:07;7.67;80.15
65291;SHT30;51893;59.754;10.110;2023-04-16T11:40:39;7.64;80.24
65291;SHT30;51893;59.754;10.110;2023-04-16T11:43:14;7.62;80.33
65291;SHT30;51893;59.754;10.110;2023-04-16T11:45:56;7.65;80.49
65291;SHT30;51893;59.754;10.110;2023-04-16T11:48:45;7.64;80.29
65291;SHT30;51893;59.754;10.110;2023-04-16T11:51:15;7.71;80.75
65291;SHT30;51893;59.754;10.110;2023-04-16T11:53:52;7.78;80.70
65291;SHT30;51893;59.754;10.110;2023-04-16T11:56:29;7.79;80.32
65291;SHT30;51893;59.754;10.110;2023-04-16T11:59:10;7.80;80.53
65291;SHT30;51893;59.754;10.110;2023-04-16T12:01:40;7.79;80.10
65291;SHT30;51893;59.754;10.110;2023-04-16T12:04:12;7.79;80.37
65291;SHT30;51893;59.754;10.110;2023-04-16T12:09:44;7.93;80.50
65291;SHT30;51893;59.754;10.110;2023-04-16T12:12:24;7.93;80.19
65291;SHT30;51893;59.754;10.110;2023-04-16T12:14:56;7.94;80.26
65291;SHT30;51893;59.754;10.110;2023-04-16T12:17:25;7.96;80.25
65291;SHT30;51893;59.754;10.110;2023-04-16T12:19:56;7.91;79.73
65291;SHT30;51893;59.754;10.110;2023-04-16T12:22:33;7.88;79.78
65291;SHT30;51893;59.754;10.110;2023-04-16T12:25:03;7.91;80.11
65291;SHT30;51893;59.754;10.110;2023-04-16T12:30:14;8.00;79.98
65291;SHT30;51893;59.754;10.110;2023-04-16T12:32:45;8.02;79.94
65291;SHT30;51893;59.754;10.110;2023-04-16T12:35:30;8.04;79.83
65291;SHT30;51893;59.754;10.110;2023-04-16T12:37:59;8.04;79.69
65291;SHT30;51893;59.754;10.110;2023-04-16T12:40:27;8.07;79.70
65291;SHT30;51893;59.754;10.110;2023-04-16T12:42:55;8.12;79.66
65291;SHT30;51893;59.754;10.110;2023-04-16T12:45:23;8.19;79.68
65291;SHT30;51893;59.754;10.110;2023-04-16T12:47:51;8.22;79.49
65291;SHT30;51893;59.754;10.110;2023-04-16T12:50:20;8.22;79.26
65291;SHT30;51893;59.754;10.110;2023-04-16T12:52:47;8.22;79.29
65291;SHT30;51893;59.754;10.110;2023-04-16T12:55:14;8.24;79.44
65291;SHT30;51893;59.754;10.110;2023-04-16T12:57:43;8.29;79.39
65291;SHT30;51893;59.754;10.110;2023-04-16T13:00:13;8.33;79.10
65291;SHT30;51893;59.754;10.110;2023-04-16T13:02:48;8.28;78.51
65291;SHT30;51893;59.754;10.110;2023-04-16T13:05:16;8.27;78.57
65291;SHT30;51893;59.754;10.110;2023-04-16T13:07:45;8.19;78.05
65291;SHT30;51893;59.754;10.110;2023-04-16T13:10:16;8.17;78.77
65291;SHT30;51893;59.754;10.110;2023-04-16T13:12:46;8.19;78.81
65291;SHT30;51893;59.754;10.110;2023-04-16T13:15:14;8.24;79.10
65291;SHT30;51893;59.754;10.110;2023-04-16T13:17:41;8.27;78.95
65291;SHT30;51893;59.754;10.110;2023-04-16T13:20:09;8.31;78.99
65291;SHT30;51893;59.754;10.110;2023-04-16T13:22:38;8.32;78.77
65291;SHT30;51893;59.754;10.110;2023-04-16T13:25:06;8.33;78.75
65291;SHT30;51893;59.754;10.110;2023-04-16T13:27:33;8.32;78.90
65291;SHT30;51893;59.754;10.110;2023-04-16T13:30:02;8.34;79.09
65291;SHT30;51893;59.754;10.110;2023-04-16T13:32:29;8.33;78.79
65291;SHT30;51893;59.754;10.110;2023-04-16T13:34:57;8.35;79.04
65291;SHT30;51893;59.754;10.110;2023-04-16T13:37:25;8.38;78.96
65291;SHT30;51893;59.754;10.110;2023-04-16T13:39:54;8.43;79.16
65291;SHT30;51893;59.754;10.110;2023-04-16T13:42:22;8.47;79.10
65291;SHT30;51893;59.754;10.110;2023-04-16T13:44:50;8.50;79.03
65291;SHT30;51893;59.754;10.110;2023-04-16T13:47:24;8.51;79.01
65291;SHT30;51893;59.754;10.110;2023-04-16T13:49:53;8.52;78.96
65291;SHT30;51893;59.754;10.110;2023-04-16T13:52:21;8.56;79.06
65291;SHT30;51893;59.754;10.110;2023-04-16T13:54:49;8.59;78.94
65291;SHT30;51893;59.754;10.110;2023-04-16T13:57:23;8.56;78.65
65291;SHT30;51893;59.754;10.110;2023-04-16T13:59:52;8.57;78.81
65291;SHT30;51893;59.754;10.110;2023-04-16T14:02:19;8.63;79.03
65291;SHT30;51893;59.754;10.110;2023-04-16T14:04:46;8.65;78.95
65291;SHT30;51893;59.754;10.110;2023-04-16T14:07:18;8.66;78.80
65291;SHT30;51893;59.754;10.110;2023-04-16T14:09:47;8.63;78.64
65291;SHT30;51893;59.754;10.110;2023-04-16T14:12:14;8.61;78.69
65291;SHT30;51893;59.754;10.110;2023-04-16T14:14:41;8.64;78.91
65291;SHT30;51893;59.754;10.110;2023-04-16T14:17:08;8.69;78.82
65291;SHT30;51893;59.754;10.110;2023-04-16T14:19:50;8.70;78.61
65291;SHT30;51893;59.754;10.110;2023-04-16T14:22:20;8.73;78.64
65291;SHT30;51893;59.754;10.110;2023-04-16T14:24:47;8.71;78.44
65291;SHT30;51893;59.754;10.110;2023-04-16T14:27:14;8.70;78.61
65291;SHT30;51893;59.754;10.110;2023-04-16T14:29:44;8.72;78.58
65291;SHT30;51893;59.754;10.110;2023-04-16T14:32:12;8.70;78.62
65291;SHT30;51893;59.754;10.110;2023-04-16T14:34:41;8.75;78.76
65291;SHT30;51893;59.754;10.110;2023-04-16T14:37:11;8.79;78.73
65291;SHT30;51893;59.754;10.110;2023-04-16T14:39:40;8.82;78.47
65291;SHT30;51893;59.754;10.110;2023-04-16T14:42:07;8.85;78.52
65291;SHT30;51893;59.754;10.110;2023-04-16T14:44:37;8.86;78.35
65291;SHT30;51893;59.754;10.110;2023-04-16T14:47:04;8.88;78.49
65291;SHT30;51893;59.754;10.110;2023-04-16T14:49:33;8.86;78.35
65291;SHT30;51893;59.754;10.110;2023-04-16T14:52:00;8.87;78.58
65291;SHT30;51893;59.754;10.110;2023-04-16T14:54:34;8.91;78.69
65291;SHT30;51893;59.754;10.110;2023-04-16T14:57:02;8.91;78.40
65291;SHT30;51893;59.754;10.110;2023-04-16T14:59:31;8.93;78.45
65291;SHT30;51893;59.754;10.110;2023-04-16T15:02:02;8.97;78.57
65291;SHT30;51893;59.754;10.110;2023-04-16T15:04:29;9.01;78.49
65291;SHT30;51893;59.754;10.110;2023-04-16T15:06:56;9.03;78.44
65291;SHT30;51893;59.754;10.110;2023-04-16T15:09:24;9.05;78.38
65291;SHT30;51893;59.754;10.110;2023-04-16T15:11:53;9.04;78.26
65291;SHT30;51893;59.754;10.110;2023-04-16T15:14:21;9.04;78.40
65291;SHT30;51893;59.754;10.110;2023-04-16T15:16:51;9.07;78.38
65291;SHT30;51893;59.754;10.110;2023-04-16T15:19:19;9.11;78.35
65291;SHT30;51893;59.754;10.110;2023-04-16T15:21:46;9.13;78.31
65291;SHT30;51893;59.754;10.110;2023-04-16T15:24:15;9.12;78.04
65291;SHT30;51893;59.754;10.110;2023-04-16T15:26:42;9.10;78.10
65291;SHT30;51893;59.754;10.110;2023-04-16T15:29:10;9.07;78.09
65291;SHT30;51893;59.754;10.110;2023-04-16T15:31:37;8.99;77.87
65291;SHT30;51893;59.754;10.110;2023-04-16T15:34:07;8.93;78.15
65291;SHT30;51893;59.754;10.110;2023-04-16T15:36:36;8.96;78.36
65291;SHT30;51893;59.754;10.110;2023-04-16T15:39:03;8.96;78.43
65291;SHT30;51893;59.754;10.110;2023-04-16T15:41:40;8.94;78.37
65291;SHT30;51893;59.754;10.110;2023-04-16T15:44:27;8.90;78.40
65291;SHT30;51893;59.754;10.110;2023-04-16T15:46:57;8.81;78.35
65291;SHT30;51893;59.754;10.110;2023-04-16T15:49:28;8.78;78.56
65291;SHT30;51893;59.754;10.110;2023-04-16T15:51:55;8.78;78.62
65291;SHT30;51893;59.754;10.110;2023-04-16T15:54:23;8.76;78.65
65291;SHT30;51893;59.754;10.110;2023-04-16T15:56:53;8.74;78.81
65291;SHT30;51893;59.754;10.110;2023-04-16T15:59:19;8.74;78.97